Observations for LONDON CITY AIRPORT, United Kingdom (EGLC)

EGLC 242120Z AUTO 00000KT 9999 NCD 11/07 Q1039  
EGLC 242050Z AUTO VRB01KT 9999 NCD 11/06 Q1039  
EGLC 242020Z AUTO VRB02KT 9999 NCD 13/06 Q1038  
EGLC 241950Z AUTO VRB02KT 9999 NCD 13/04 Q1038  
EGLC 241920Z AUTO 07003KT 9999 NCD 13/03 Q1038  
EGLC 241850Z AUTO VRB02KT 9999 NCD 14/03 Q1038  
EGLC 241820Z AUTO VRB02KT 9999 NCD 14/03 Q1038  
EGLC 241750Z AUTO VRB03KT 9999 NCD 14/03 Q1037  
EGLC 241720Z AUTO 01005KT 330V090 9999 NCD 15/03 Q1037  
EGLC 241650Z AUTO 36006KT 310V100 9999 NCD 15/02 Q1037  
EGLC 241620Z AUTO 32005KT 270V010 9999 NCD 15/03 Q1037  
EGLC 241550Z AUTO 31006KT 260V010 9999 NCD 15/03 Q1037  
EGLC 241520Z AUTO 34006KT 270V040 9999 NCD 15/03 Q1037  
EGLC 241450Z AUTO 35006KT 280V050 9999 NCD 15/03 Q1037  
EGLC 241420Z AUTO 30006KT 270V030 9999 FEW046 15/03 Q1038   
EGLC 241350Z AUTO 30005KT 180V350 9999 FEW046 15/03 Q1038   
EGLC 241320Z AUTO 31006KT 260V030 9999 NCD 15/04 Q1038  
EGLC 241250Z AUTO 35007KT 300V060 9999 FEW041 14/04 Q1038   
EGLC 241220Z AUTO VRB06KT 9999 FEW040 14/04 Q1038   
EGLC 241150Z AUTO VRB05KT 9999 FEW037 14/05 Q1038   
EGLC 241120Z AUTO VRB06KT 9999 FEW035 13/05 Q1038   
EGLC 241050Z AUTO 31007KT 270V020 9999 NCD 13/05 Q1038  
EGLC 241020Z AUTO 30008KT 280V350 9999 NCD 12/05 Q1038  
EGLC 240950Z AUTO 28007KT 250V340 9999 NCD 12/05 Q1038  
EGLC 240920Z AUTO VRB04KT 9999 NCD 12/05 Q1038  
EGLC 240850Z AUTO 32006KT 280V350 9999 NCD 11/05 Q1037  
EGLC 240820Z AUTO 29004KT 190V340 9999 NCD 10/05 Q1037  
EGLC 240750Z AUTO 27007KT 220V310 9999 NCD 10/05 Q1037  
EGLC 240720Z AUTO 25006KT 210V290 9999 NCD 09/06 Q1036  
EGLC 240650Z AUTO 22006KT 190V260 9999 NCD 07/06 Q1036  
EGLC 240620Z AUTO 23007KT 9999 NCD 07/06 Q1036  
EGLC 240550Z AUTO 22005KT 190V250 9999 NCD 07/06 Q1035  
EGLC 240520Z AUTO 23005KT 9999 NCD 07/06 Q1035  
EGLC 240450Z AUTO 21006KT 9999 NCD 07/06 Q1035  
EGLC 240420Z AUTO 21006KT 9999 NCD 07/06 Q1035  
EGLC 240350Z AUTO 27006KT 9999 NCD 08/06 Q1035  
EGLC 240320Z AUTO 27007KT 9999 NCD 09/06 Q1034  
EGLC 240250Z AUTO 28007KT 9999 NCD 09/06 Q1034  
EGLC 240220Z AUTO 28006KT 9999 NCD 09/06 Q1034  
EGLC 240150Z AUTO 28008KT 9999 NCD 10/06 Q1034  
EGLC 240120Z AUTO 30005KT 9999 NCD 10/06 Q1033  
EGLC 240050Z AUTO 29005KT 9999 NCD 10/06 Q1033  
EGLC 240020Z AUTO 28006KT 9999 NCD 09/06 Q1032  
EGLC 232350Z AUTO 30006KT 9999 NCD 10/06 Q1032  
EGLC 232320Z AUTO 29006KT 9999 NCD 10/06 Q1031  
EGLC 232250Z AUTO 29005KT 9999 NCD 10/06 Q1031  
EGLC 232220Z AUTO 29006KT 9999 NCD 11/06 Q1030  
EGLC 232150Z AUTO 29006KT 9999 NCD 11/06 Q1030  
EGLC 232120Z AUTO 29006KT 9999 NCD 11/06 Q1029  
EGLC 232050Z AUTO 29006KT 9999 NCD 11/06 Q1029